createdAt,value
2023-02-21T00:01:40.255Z,57.67
2023-02-21T00:04:07.070Z,57.61
2023-02-21T00:06:33.445Z,57.75
2023-02-21T00:08:59.883Z,57.93
2023-02-21T00:11:26.287Z,57.89
2023-02-21T00:13:52.801Z,57.82
2023-02-21T00:16:19.133Z,58.11
2023-02-21T00:18:45.712Z,57.90
2023-02-21T00:21:12.489Z,57.95
2023-02-21T00:23:39.175Z,58.12
2023-02-21T00:26:05.484Z,58.28
2023-02-21T00:28:31.859Z,57.99
2023-02-21T00:30:58.265Z,58.00
2023-02-21T00:33:24.876Z,58.15
2023-02-21T00:35:51.288Z,58.04
2023-02-21T00:38:17.696Z,58.30
2023-02-21T00:40:44.010Z,57.97
2023-02-21T00:43:10.385Z,57.93
2023-02-21T00:45:37.040Z,57.78
2023-02-21T00:48:03.799Z,57.93
2023-02-21T00:50:30.145Z,58.24
2023-02-21T00:52:56.538Z,58.20
2023-02-21T00:55:22.946Z,58.31
2023-02-21T00:57:49.671Z,58.17
2023-02-21T01:00:16.074Z,57.97
2023-02-21T01:02:42.580Z,57.89
2023-02-21T01:05:09.290Z,58.27
2023-02-21T01:07:35.938Z,58.16
2023-02-21T01:10:02.396Z,58.27
2023-02-21T01:12:28.755Z,58.06
2023-02-21T01:14:55.094Z,58.23
2023-02-21T01:17:21.740Z,58.51
2023-02-21T01:19:48.101Z,58.33
2023-02-21T01:22:14.928Z,58.07
2023-02-21T01:24:41.377Z,58.17
2023-02-21T01:27:08.006Z,58.05
2023-02-21T01:29:34.331Z,58.23
2023-02-21T01:32:01.352Z,58.21
2023-02-21T01:34:27.892Z,58.34
2023-02-21T01:36:54.430Z,58.42
2023-02-21T01:39:21.066Z,58.16
2023-02-21T01:41:47.406Z,58.25
2023-02-21T01:44:13.721Z,58.36
2023-02-21T01:46:40.265Z,58.46
2023-02-21T01:49:06.677Z,58.50
2023-02-21T01:51:32.973Z,58.29
2023-02-21T01:53:59.259Z,58.27
2023-02-21T01:56:25.658Z,58.56
2023-02-21T01:58:52.199Z,58.22
2023-02-21T02:01:19.206Z,58.24
2023-02-21T02:03:46.193Z,58.37
2023-02-21T02:06:12.765Z,58.41
2023-02-21T02:08:39.360Z,58.71
2023-02-21T02:11:06.098Z,58.31
2023-02-21T02:13:32.671Z,58.51
2023-02-21T02:15:59.026Z,58.37
2023-02-21T02:18:25.713Z,58.57
2023-02-21T02:20:52.119Z,58.40
2023-02-21T02:23:18.445Z,58.37
2023-02-21T02:25:44.780Z,58.39
2023-02-21T02:28:11.125Z,58.34
2023-02-21T02:30:37.638Z,58.58
2023-02-21T02:33:04.225Z,58.65
2023-02-21T02:35:30.682Z,58.33
2023-02-21T02:37:57.071Z,58.51
2023-02-21T02:40:23.703Z,58.76
2023-02-21T02:42:50.117Z,58.64
2023-02-21T02:45:16.786Z,58.77
2023-02-21T02:47:43.442Z,58.70
2023-02-21T02:50:09.793Z,58.64
2023-02-21T02:52:36.169Z,58.64
2023-02-21T02:55:02.461Z,58.89
2023-02-21T02:57:28.810Z,58.55
2023-02-21T02:59:55.064Z,58.74
2023-02-21T03:02:21.342Z,58.34
2023-02-21T03:04:48.052Z,58.38
2023-02-21T03:07:14.486Z,58.49
2023-02-21T03:09:40.791Z,58.56
2023-02-21T03:12:07.538Z,58.60
2023-02-21T03:14:33.904Z,58.71
2023-02-21T03:17:00.396Z,58.85
2023-02-21T03:19:26.772Z,58.73
2023-02-21T03:21:53.350Z,58.82
2023-02-21T03:24:19.673Z,58.59
2023-02-21T03:26:46.032Z,58.60
2023-02-21T03:29:12.418Z,59.10
2023-02-21T03:31:38.950Z,59.19
2023-02-21T03:34:05.340Z,59.00
2023-02-21T03:36:31.701Z,58.91
2023-02-21T03:38:58.093Z,58.91
2023-02-21T03:41:25.233Z,58.74
2023-02-21T03:43:51.702Z,58.77
2023-02-21T03:46:18.097Z,58.57
2023-02-21T03:48:44.464Z,58.97
2023-02-21T03:51:10.837Z,58.61
2023-02-21T03:53:37.146Z,58.63
2023-02-21T03:56:03.566Z,58.75
2023-02-21T03:58:30.181Z,58.77
2023-02-21T04:00:57.211Z,58.74
2023-02-21T04:03:23.550Z,58.92
2023-02-21T04:05:50.034Z,59.51
2023-02-21T04:08:16.416Z,59.59
2023-02-21T04:10:51.715Z,59.40
2023-02-21T04:13:19.195Z,59.17
2023-02-21T04:15:45.565Z,58.94
2023-02-21T04:18:11.946Z,58.97
2023-02-21T04:20:38.622Z,59.50
2023-02-21T04:23:05.074Z,59.23
2023-02-21T04:25:31.389Z,58.91
2023-02-21T04:27:57.906Z,59.38
2023-02-21T04:30:24.307Z,59.39
2023-02-21T04:32:50.904Z,59.01
2023-02-21T04:35:17.233Z,59.39
2023-02-21T04:37:43.740Z,59.41
2023-02-21T04:40:10.175Z,59.35
2023-02-21T04:42:36.714Z,59.07
2023-02-21T04:45:03.401Z,59.39
2023-02-21T04:47:29.764Z,59.16
2023-02-21T04:49:56.094Z,59.43
2023-02-21T04:52:22.536Z,59.55
2023-02-21T04:54:49.159Z,59.53
2023-02-21T04:57:15.598Z,59.42
2023-02-21T04:59:41.950Z,59.48
2023-02-21T05:02:08.347Z,59.19
2023-02-21T05:04:34.852Z,58.87
2023-02-21T05:07:01.301Z,59.57
2023-02-21T05:09:27.721Z,59.19
2023-02-21T05:11:54.313Z,59.13
2023-02-21T05:14:20.841Z,59.07
2023-02-21T05:16:47.247Z,59.11
2023-02-21T05:19:14.045Z,59.01
2023-02-21T05:21:40.374Z,59.13
2023-02-21T05:24:06.734Z,59.23
2023-02-21T05:26:33.381Z,59.61
2023-02-21T05:28:59.906Z,59.22
2023-02-21T05:31:26.453Z,59.25
2023-02-21T05:33:53.018Z,59.35
2023-02-21T05:36:19.417Z,59.38
2023-02-21T05:38:45.836Z,59.30
2023-02-21T05:41:12.163Z,59.24
2023-02-21T05:43:38.594Z,59.15
2023-02-21T05:46:05.295Z,59.43
2023-02-21T05:48:31.992Z,59.20
2023-02-21T05:50:58.427Z,59.46
2023-02-21T05:53:24.876Z,59.47
2023-02-21T05:55:51.228Z,59.58
2023-02-21T05:58:17.587Z,59.52
2023-02-21T06:00:43.965Z,59.20
2023-02-21T06:03:10.335Z,59.40
2023-02-21T06:05:36.662Z,59.39
2023-02-21T06:08:03.011Z,59.59
2023-02-21T06:10:29.354Z,59.40
2023-02-21T06:12:55.739Z,59.74
2023-02-21T06:15:22.079Z,59.31
2023-02-21T06:17:48.455Z,59.48
2023-02-21T06:20:14.852Z,59.29
2023-02-21T06:22:41.242Z,59.41
2023-02-21T06:25:07.581Z,59.80
2023-02-21T06:27:34.145Z,59.72
2023-02-21T06:30:00.506Z,59.54
2023-02-21T06:32:27.323Z,59.39
2023-02-21T06:34:53.956Z,59.57
2023-02-21T06:37:20.313Z,59.67
2023-02-21T06:39:46.636Z,59.72
2023-02-21T06:42:12.933Z,59.78
2023-02-21T06:44:39.336Z,59.69
2023-02-21T06:47:05.686Z,59.80
2023-02-21T06:49:32.141Z,59.72
2023-02-21T06:51:58.496Z,60.39
2023-02-21T06:54:24.909Z,61.13
2023-02-21T06:56:51.192Z,61.05
2023-02-21T06:59:17.630Z,60.65
2023-02-21T07:01:44.924Z,60.47
2023-02-21T07:04:11.408Z,61.61
2023-02-21T07:06:37.814Z,61.17
2023-02-21T07:09:04.314Z,61.16
2023-02-21T07:11:31.413Z,61.20
2023-02-21T07:13:57.986Z,61.03
2023-02-21T07:16:24.637Z,60.99
2023-02-21T07:18:50.962Z,61.04
2023-02-21T07:21:17.452Z,60.91
2023-02-21T07:23:44.104Z,60.88
2023-02-21T07:26:10.432Z,61.12
2023-02-21T07:28:37.150Z,60.63
2023-02-21T07:31:03.630Z,60.66
2023-02-21T07:33:30.162Z,60.69
2023-02-21T07:35:56.547Z,60.75
2023-02-21T07:38:23.747Z,60.33
2023-02-21T07:40:50.072Z,60.80
2023-02-21T07:43:17.101Z,60.50
2023-02-21T07:45:43.629Z,60.76
2023-02-21T07:48:10.031Z,60.67
2023-02-21T07:50:36.301Z,60.87
2023-02-21T07:53:02.727Z,60.66
2023-02-21T07:55:29.562Z,60.69
2023-02-21T07:57:56.226Z,60.73
2023-02-21T08:00:22.578Z,60.82
2023-02-21T08:02:49.121Z,60.63
2023-02-21T08:05:15.814Z,60.88
2023-02-21T08:07:42.609Z,61.03
2023-02-21T08:10:09.022Z,60.78
2023-02-21T08:12:35.340Z,61.16
2023-02-21T08:15:01.810Z,61.40
2023-02-21T08:17:28.454Z,61.39
2023-02-21T08:19:55.106Z,61.20
2023-02-21T08:22:21.475Z,61.45
2023-02-21T08:24:47.969Z,61.33
2023-02-21T08:27:14.314Z,61.38
2023-02-21T08:29:41.167Z,60.62
2023-02-21T08:32:07.747Z,61.44
2023-02-21T08:34:34.145Z,61.16
2023-02-21T08:37:00.465Z,61.29
2023-02-21T08:39:27.044Z,60.84
2023-02-21T08:41:53.436Z,60.88
2023-02-21T08:44:19.752Z,60.75
2023-02-21T08:46:47.782Z,61.00
2023-02-21T08:49:15.803Z,60.92
2023-02-21T08:51:42.685Z,61.04
2023-02-21T08:54:09.281Z,60.29
2023-02-21T08:56:35.971Z,60.52
2023-02-21T08:59:02.434Z,60.44
2023-02-21T09:01:28.842Z,60.51
2023-02-21T09:03:55.509Z,60.80
2023-02-21T09:06:21.892Z,60.76
2023-02-21T09:08:48.212Z,61.04
2023-02-21T09:11:15.046Z,61.25
2023-02-21T09:13:41.676Z,61.03
2023-02-21T09:16:08.313Z,61.56
2023-02-21T09:18:34.841Z,61.33
2023-02-21T09:21:01.135Z,61.51
2023-02-21T09:23:27.925Z,61.39
2023-02-21T09:25:54.369Z,61.65
2023-02-21T09:28:20.701Z,61.68
2023-02-21T09:30:47.055Z,61.93
2023-02-21T09:33:13.865Z,61.98
2023-02-21T09:35:41.085Z,62.07
2023-02-21T09:38:07.418Z,62.05
2023-02-21T09:40:33.792Z,62.17
2023-02-21T09:43:00.181Z,62.34
2023-02-21T09:45:26.602Z,62.25
2023-02-21T09:47:53.523Z,62.44
2023-02-21T09:50:20.143Z,62.86
2023-02-21T09:52:46.909Z,62.92
2023-02-21T09:55:13.225Z,62.75
2023-02-21T09:57:39.523Z,62.75
2023-02-21T10:00:05.839Z,63.13
2023-02-21T10:02:32.180Z,63.06
2023-02-21T10:04:58.917Z,63.39
2023-02-21T10:07:25.587Z,63.35
2023-02-21T10:09:51.954Z,63.13
2023-02-21T10:12:18.389Z,63.50
2023-02-21T10:14:45.456Z,63.60
2023-02-21T10:17:12.001Z,63.56
2023-02-21T10:19:38.272Z,63.54
2023-02-21T10:22:04.553Z,63.82
2023-02-21T10:24:30.989Z,63.60
2023-02-21T10:26:57.297Z,63.82
2023-02-21T10:29:24.010Z,63.96
2023-02-21T10:31:50.637Z,64.00
2023-02-21T10:34:17.258Z,63.69
2023-02-21T10:36:43.565Z,64.01
2023-02-21T10:39:09.906Z,64.08
2023-02-21T10:41:36.227Z,63.72
2023-02-21T10:44:02.574Z,63.80
2023-02-21T10:46:28.870Z,63.71
2023-02-21T10:48:55.699Z,63.77
2023-02-21T10:51:22.000Z,63.80
2023-02-21T10:53:48.400Z,64.18
2023-02-21T10:56:15.271Z,63.91
2023-02-21T10:58:42.150Z,63.74
2023-02-21T11:01:08.566Z,63.81
2023-02-21T11:03:34.871Z,63.79
2023-02-21T11:06:01.251Z,64.03
2023-02-21T11:08:27.578Z,63.97
2023-02-21T11:10:53.861Z,64.02
2023-02-21T11:13:20.312Z,63.90
2023-02-21T11:15:46.660Z,63.87
2023-02-21T11:18:12.966Z,63.75
2023-02-21T11:20:39.318Z,63.59
2023-02-21T11:23:06.016Z,63.59
2023-02-21T11:25:32.444Z,63.48
2023-02-21T11:27:58.755Z,63.57
2023-02-21T11:30:25.463Z,63.53
2023-02-21T11:32:51.931Z,63.64
2023-02-21T11:35:18.429Z,63.68
2023-02-21T11:37:45.463Z,63.41
2023-02-21T11:40:11.853Z,63.67
2023-02-21T11:42:38.140Z,63.49
2023-02-21T11:45:04.510Z,63.17
2023-02-21T11:47:30.928Z,63.21
2023-02-21T11:49:57.299Z,63.27
2023-02-21T11:52:23.690Z,63.20
2023-02-21T11:54:50.164Z,63.18
2023-02-21T11:57:16.502Z,63.19
2023-02-21T11:59:42.836Z,63.01
2023-02-21T12:02:09.153Z,63.19
2023-02-21T12:04:36.026Z,62.65
2023-02-21T12:07:02.531Z,62.95
2023-02-21T12:09:29.143Z,62.78
2023-02-21T12:11:55.506Z,62.66
2023-02-21T12:14:21.885Z,62.86
2023-02-21T12:16:48.433Z,62.46
2023-02-21T12:19:14.802Z,62.38
2023-02-21T12:21:41.170Z,62.66
2023-02-21T12:24:07.880Z,62.44
2023-02-21T12:26:34.736Z,62.64
2023-02-21T12:29:01.205Z,62.54
2023-02-21T12:31:27.731Z,62.36
2023-02-21T12:33:54.418Z,62.50
2023-02-21T12:36:20.788Z,62.43
2023-02-21T12:38:47.164Z,62.32
2023-02-21T12:41:13.740Z,62.35
2023-02-21T12:43:40.505Z,62.11
2023-02-21T12:46:07.185Z,62.05
2023-02-21T12:48:33.571Z,62.01
2023-02-21T12:50:59.992Z,62.21
2023-02-21T12:53:26.657Z,62.07
2023-02-21T12:55:52.987Z,62.28
2023-02-21T12:58:19.318Z,62.01
2023-02-21T13:00:45.690Z,61.96
2023-02-21T13:03:12.452Z,61.84
2023-02-21T13:05:38.757Z,61.73
2023-02-21T13:08:05.184Z,61.98
2023-02-21T13:10:31.617Z,62.15
2023-02-21T13:12:57.955Z,62.24
2023-02-21T13:15:24.862Z,62.16
2023-02-21T13:17:51.388Z,62.08
2023-02-21T13:20:18.244Z,62.28
2023-02-21T13:22:44.548Z,62.37
2023-02-21T13:25:11.050Z,62.28
2023-02-21T13:27:37.753Z,62.51
2023-02-21T13:30:04.231Z,62.57
2023-02-21T13:32:30.955Z,62.44
2023-02-21T13:34:57.290Z,62.71
2023-02-21T13:37:23.714Z,62.68
2023-02-21T13:39:51.599Z,62.98
2023-02-21T13:42:19.876Z,62.94
2023-02-21T13:44:46.450Z,63.30
2023-02-21T13:47:12.734Z,63.45
2023-02-21T13:49:39.081Z,63.23
2023-02-21T13:52:05.586Z,63.40
2023-02-21T13:54:31.958Z,64.73
2023-02-21T13:56:58.279Z,63.66
2023-02-21T13:59:25.675Z,63.29
2023-02-21T14:01:51.976Z,63.47
2023-02-21T14:04:18.309Z,63.46
2023-02-21T14:06:44.762Z,63.18
2023-02-21T14:09:11.088Z,63.23
2023-02-21T14:11:37.426Z,63.15
2023-02-21T14:14:04.067Z,63.06
2023-02-21T14:16:30.440Z,62.76
2023-02-21T14:18:56.826Z,62.98
2023-02-21T14:21:23.538Z,62.70
2023-02-21T14:23:50.052Z,62.92
2023-02-21T14:26:16.728Z,62.83
2023-02-21T14:28:43.153Z,62.80
2023-02-21T14:31:09.511Z,62.81
2023-02-21T14:33:36.144Z,62.85
2023-02-21T14:36:02.510Z,62.70
2023-02-21T14:38:29.382Z,62.60
2023-02-21T14:40:55.768Z,62.62
2023-02-21T14:43:22.116Z,62.15
2023-02-21T14:45:48.471Z,62.31
2023-02-21T14:48:14.955Z,62.17
2023-02-21T14:50:41.311Z,62.19
2023-02-21T14:53:07.777Z,62.18
2023-02-21T14:55:34.725Z,62.33
2023-02-21T14:58:01.270Z,62.19
2023-02-21T15:00:27.732Z,61.90
2023-02-21T15:02:54.042Z,62.40
2023-02-21T15:05:20.589Z,62.15
2023-02-21T15:07:47.068Z,61.97
2023-02-21T15:10:13.398Z,61.78
2023-02-21T15:12:39.774Z,62.11
2023-02-21T15:15:06.147Z,61.74
2023-02-21T15:17:32.418Z,62.01
2023-02-21T15:20:00.096Z,61.59
2023-02-21T15:22:26.439Z,61.75
2023-02-21T15:24:53.315Z,61.73
2023-02-21T15:27:19.720Z,61.54
2023-02-21T15:29:46.023Z,61.74
2023-02-21T15:32:12.499Z,61.48
2023-02-21T15:34:38.909Z,61.80
2023-02-21T15:37:05.488Z,61.45
2023-02-21T15:39:32.017Z,61.74
2023-02-21T15:41:58.465Z,61.42
2023-02-21T15:44:24.772Z,61.44
2023-02-21T15:46:51.569Z,61.53
2023-02-21T15:49:17.942Z,61.56
2023-02-21T15:51:44.286Z,61.62
2023-02-21T15:54:10.658Z,61.67
2023-02-21T15:56:37.057Z,61.70
2023-02-21T15:59:03.586Z,61.27
2023-02-21T16:01:30.292Z,61.44
2023-02-21T16:03:56.654Z,61.24
2023-02-21T16:06:23.688Z,61.39
2023-02-21T16:08:49.995Z,61.58
2023-02-21T16:11:17.032Z,61.00
2023-02-21T16:13:45.951Z,61.37
2023-02-21T16:16:12.994Z,61.28
2023-02-21T16:18:39.327Z,61.40
2023-02-21T16:21:06.398Z,61.11
2023-02-21T16:23:33.549Z,61.42
2023-02-21T16:25:59.932Z,61.25
2023-02-21T16:28:26.678Z,61.22
2023-02-21T16:30:53.247Z,61.02
2023-02-21T16:33:19.661Z,61.08
2023-02-21T16:35:46.556Z,60.82
2023-02-21T16:38:13.119Z,61.19
2023-02-21T16:40:39.571Z,60.71
2023-02-21T16:43:05.973Z,60.99
2023-02-21T16:45:32.795Z,60.58
2023-02-21T16:47:59.170Z,60.67
2023-02-21T16:50:25.864Z,61.04
2023-02-21T16:52:52.503Z,60.66
2023-02-21T16:55:19.286Z,60.73
2023-02-21T16:57:45.692Z,60.61
2023-02-21T17:00:12.059Z,60.67
2023-02-21T17:02:39.369Z,60.47
2023-02-21T17:05:06.405Z,60.63
2023-02-21T17:07:32.825Z,60.71
2023-02-21T17:09:59.629Z,60.67
2023-02-21T17:12:25.958Z,60.64
2023-02-21T17:14:52.350Z,60.43
2023-02-21T17:17:19.166Z,60.35
2023-02-21T17:19:45.560Z,60.30
2023-02-21T17:22:12.143Z,60.17
2023-02-21T17:24:38.536Z,60.35
2023-02-21T17:27:05.540Z,60.16
2023-02-21T17:29:32.005Z,60.21
2023-02-21T17:31:58.519Z,59.91
2023-02-21T17:34:25.474Z,60.14
2023-02-21T17:36:52.031Z,60.08
2023-02-21T17:39:18.783Z,60.06
2023-02-21T17:41:45.154Z,60.09
2023-02-21T17:44:12.143Z,59.82
2023-02-21T17:46:39.260Z,59.86
2023-02-21T17:49:05.798Z,60.02
2023-02-21T17:51:32.296Z,59.84
2023-02-21T17:53:58.591Z,60.16
2023-02-21T17:56:24.875Z,60.04
2023-02-21T17:58:51.229Z,60.32
2023-02-21T18:01:17.672Z,60.35
2023-02-21T18:03:44.150Z,60.24
2023-02-21T18:06:10.739Z,59.90
2023-02-21T18:08:37.066Z,60.28
2023-02-21T18:11:03.497Z,60.06
2023-02-21T18:13:29.947Z,60.03
2023-02-21T18:15:56.348Z,59.67
2023-02-21T18:18:22.662Z,60.04
2023-02-21T18:20:49.350Z,60.16
2023-02-21T18:23:17.023Z,60.18
2023-02-21T18:25:43.359Z,59.99
2023-02-21T18:28:09.914Z,60.13
2023-02-21T18:30:36.510Z,60.09
2023-02-21T18:33:02.882Z,60.25
2023-02-21T18:35:29.175Z,60.23
2023-02-21T18:37:55.810Z,59.87
2023-02-21T18:40:22.191Z,60.29
2023-02-21T18:42:48.690Z,60.06
2023-02-21T18:45:15.356Z,60.05
2023-02-21T18:47:41.715Z,59.72
2023-02-21T18:50:08.069Z,59.54
2023-02-21T18:52:34.431Z,59.88
2023-02-21T18:55:00.725Z,59.81
2023-02-21T18:57:27.123Z,59.42
2023-02-21T18:59:53.600Z,59.41
2023-02-21T19:02:19.963Z,59.18
2023-02-21T19:04:46.688Z,59.55
2023-02-21T19:07:13.411Z,59.40
2023-02-21T19:09:39.864Z,59.25
2023-02-21T19:12:06.287Z,59.35
2023-02-21T19:14:32.808Z,59.30
2023-02-21T19:16:59.117Z,59.13
2023-02-21T19:19:25.447Z,59.28
2023-02-21T19:21:52.062Z,58.91
2023-02-21T19:24:18.941Z,59.19
2023-02-21T19:26:45.474Z,59.20
2023-02-21T19:29:11.954Z,58.87
2023-02-21T19:31:39.270Z,58.95
2023-02-21T19:34:05.851Z,59.12
2023-02-21T19:36:32.210Z,58.99
2023-02-21T19:38:58.816Z,58.79
2023-02-21T19:41:25.148Z,58.82
2023-02-21T19:43:51.456Z,59.08
2023-02-21T19:46:17.820Z,59.11
2023-02-21T19:48:44.222Z,59.31
2023-02-21T19:51:10.911Z,59.13
2023-02-21T19:53:37.229Z,59.61
2023-02-21T19:56:04.227Z,59.46
2023-02-21T19:58:31.055Z,59.46
2023-02-21T20:00:57.858Z,59.66
2023-02-21T20:03:24.175Z,59.37
2023-02-21T20:05:50.491Z,59.20
2023-02-21T20:08:16.886Z,59.22
2023-02-21T20:10:43.538Z,59.83
2023-02-21T20:13:09.892Z,59.39
2023-02-21T20:15:36.881Z,59.40
2023-02-21T20:18:03.398Z,59.19
2023-02-21T20:20:29.825Z,59.26
2023-02-21T20:22:56.357Z,59.20
2023-02-21T20:25:22.748Z,59.20
2023-02-21T20:27:49.921Z,59.30
2023-02-21T20:30:17.100Z,59.39
2023-02-21T20:32:43.604Z,59.48
2023-02-21T20:35:09.926Z,59.44
2023-02-21T20:37:36.550Z,59.38
2023-02-21T20:40:03.039Z,59.17
2023-02-21T20:42:29.423Z,59.39
2023-02-21T20:44:56.009Z,59.49
2023-02-21T20:47:22.360Z,59.18
2023-02-21T20:49:48.629Z,59.38
2023-02-21T20:52:14.961Z,59.31
2023-02-21T20:54:41.564Z,59.26
2023-02-21T20:57:08.464Z,59.00
2023-02-21T20:59:35.033Z,59.40
2023-02-21T21:02:01.415Z,59.45
2023-02-21T21:04:28.216Z,59.20
2023-02-21T21:06:54.634Z,59.15
2023-02-21T21:09:20.950Z,59.45
2023-02-21T21:11:48.022Z,59.10
2023-02-21T21:14:16.126Z,59.54
2023-02-21T21:16:43.028Z,59.52
2023-02-21T21:19:09.309Z,59.05
2023-02-21T21:21:35.765Z,59.64
2023-02-21T21:24:02.117Z,59.46
2023-02-21T21:26:28.597Z,58.97
2023-02-21T21:28:54.970Z,59.31
2023-02-21T21:31:21.420Z,58.62
2023-02-21T21:33:47.890Z,58.78
2023-02-21T21:36:14.309Z,58.70
2023-02-21T21:38:40.685Z,58.64
2023-02-21T21:41:07.636Z,58.43
2023-02-21T21:43:34.005Z,59.03
2023-02-21T21:46:00.630Z,58.50
2023-02-21T21:48:27.040Z,58.97
2023-02-21T21:50:53.589Z,58.95
2023-02-21T21:53:20.052Z,59.04
2023-02-21T21:55:47.342Z,58.69
2023-02-21T21:58:13.852Z,59.06
2023-02-21T22:00:41.162Z,58.78
2023-02-21T22:03:08.191Z,58.74
2023-02-21T22:05:34.568Z,58.92
2023-02-21T22:08:00.966Z,58.87
2023-02-21T22:10:27.589Z,58.93
2023-02-21T22:12:54.285Z,58.90
2023-02-21T22:15:20.673Z,59.33
2023-02-21T22:17:47.042Z,58.96
2023-02-21T22:20:13.456Z,59.24
2023-02-21T22:22:40.198Z,59.20
2023-02-21T22:25:06.664Z,58.90
2023-02-21T22:27:33.662Z,58.91
2023-02-21T22:30:00.045Z,59.04
2023-02-21T22:32:26.534Z,59.05
2023-02-21T22:34:52.873Z,58.95
2023-02-21T22:37:19.642Z,58.66
2023-02-21T22:39:45.908Z,58.78
2023-02-21T22:42:12.871Z,58.66
2023-02-21T22:44:39.435Z,58.78
2023-02-21T22:47:06.328Z,58.59
2023-02-21T22:49:34.887Z,58.65
2023-02-21T22:52:01.293Z,58.36
2023-02-21T22:54:27.644Z,58.45
2023-02-21T22:56:54.112Z,58.98
2023-02-21T22:59:20.513Z,58.45
2023-02-21T23:01:47.618Z,58.88
2023-02-21T23:04:14.016Z,58.84
2023-02-21T23:06:40.774Z,58.44
2023-02-21T23:09:07.233Z,58.25
2023-02-21T23:11:34.045Z,58.24
2023-02-21T23:14:00.635Z,58.25
2023-02-21T23:16:27.216Z,58.23
2023-02-21T23:18:53.668Z,58.28
2023-02-21T23:21:20.400Z,58.55
2023-02-21T23:23:48.197Z,58.35
2023-02-21T23:26:21.065Z,58.21
2023-02-21T23:28:52.937Z,58.71
2023-02-21T23:31:19.559Z,58.48
2023-02-21T23:33:46.300Z,58.84
2023-02-21T23:36:12.954Z,58.57
2023-02-21T23:38:39.362Z,58.64
2023-02-21T23:41:05.838Z,58.44
2023-02-21T23:43:32.302Z,58.69
2023-02-21T23:45:59.040Z,58.29
2023-02-21T23:48:25.458Z,58.42
2023-02-21T23:50:51.824Z,58.39
2023-02-21T23:53:18.698Z,58.30
2023-02-21T23:55:45.077Z,58.50
2023-02-21T23:58:11.440Z,58.30
